Accueil
METAR-TAF:

METAR-TAF

Aéroports :

Aéroport de Lahr

Lahr, Allemagne

latitude: 48-22-09N, longitude: 007-49-40E, altitude: 156 m

Observation

Le bulletin a été fait il y a 10 heures et 37 minutes, à 18:50 UTC
Vent 6 kt de ouest/sud-ouest
Température 6°C
Humidité 61%
Pression 1022 hPa
Visibilité 10 km ou plus
Ciel couvert à une hauteur de 4600 ft

METAR: EDTL 151850Z 25006KT 9999 OVC046 06/M01 Q1022

Heure: 06:27 (05:27 UTC)

Prévision

Le bulletin a été fait il y a 12 heures et 27 minutes, à 17:00 UTC
Prévision valable du 15 à 18 UTC au 15 à 24 UTC
Vent 8 kt de sud/sud-ouest
Visibilité 10 km ou plus
Nuages fragmentés à une hauteur de 4000 ft

TAF: EDTL 151700Z 1518/1524 21008KT 9999 BKN040

Observations et prévisions météorologiques de plus de 4000 aéroports (messages METAR et TAF).

Les stations disponibles sont représentées par des disques jaunes et rouges sur la carte.

Passer la souris dessus pour voir le nom de la station.

Cliquer dessus pour voir les observations et prévisions météorologiques.

Pour changer de carte: cliquez sur les boutons verts avec une croix noire pour zoomer, sur le bouton vert avec un tiret pour effectuer un zoom arrière, ou sur les flèches vertes pour les cartes adjacentes.


METAR-TAF: